sensor_id;sensor_type;location;lat;lon;timestamp;pressure;altitude;pressure_sealevel;temperature;humidity
62122;BME280;48108;47.532;19.084;2023-03-14T05:02:19;99356.16;;;5.85;79.18
62122;BME280;48108;47.532;19.084;2023-03-14T05:05:23;99333.81;;;5.78;78.56
62122;BME280;48108;47.532;19.084;2023-03-14T05:08:26;99345.69;;;5.75;79.21
62122;BME280;48108;47.532;19.084;2023-03-14T05:11:30;99337.69;;;5.67;80.05
62122;BME280;48108;47.532;19.084;2023-03-14T05:14:33;99333.59;;;5.96;80.00
62122;BME280;48108;47.532;19.084;2023-03-14T05:17:37;99324.56;;;5.97;79.26
62122;BME280;48108;47.532;19.084;2023-03-14T05:20:40;99327.25;;;5.97;79.79
62122;BME280;48108;47.532;19.084;2023-03-14T05:23:44;99314.56;;;5.99;80.23
62122;BME280;48108;47.532;19.084;2023-03-14T05:26:47;99317.13;;;6.23;77.83
62122;BME280;48108;47.532;19.084;2023-03-14T05:29:50;99309.88;;;6.32;77.50
62122;BME280;48108;47.532;19.084;2023-03-14T05:32:54;99321.53;;;6.39;77.87
62122;BME280;48108;47.532;19.084;2023-03-14T05:35:57;99309.59;;;6.50;78.63
62122;BME280;48108;47.532;19.084;2023-03-14T05:39:00;99323.25;;;6.55;79.27
62122;BME280;48108;47.532;19.084;2023-03-14T05:42:03;99327.00;;;6.69;78.40
62122;BME280;48108;47.532;19.084;2023-03-14T05:45:07;99310.38;;;6.81;78.86
62122;BME280;48108;47.532;19.084;2023-03-14T05:48:11;99311.22;;;6.97;78.41
62122;BME280;48108;47.532;19.084;2023-03-14T05:51:14;99306.19;;;7.17;75.51
62122;BME280;48108;47.532;19.084;2023-03-14T05:54:17;99302.59;;;7.39;75.61
62122;BME280;48108;47.532;19.084;2023-03-14T05:57:20;99304.44;;;7.68;71.91
62122;BME280;48108;47.532;19.084;2023-03-14T06:00:26;99309.88;;;8.05;71.04
62122;BME280;48108;47.532;19.084;2023-03-14T06:03:30;99293.44;;;8.44;68.27
62122;BME280;48108;47.532;19.084;2023-03-14T06:06:33;99309.47;;;8.80;64.89
62122;BME280;48108;47.532;19.084;2023-03-14T06:09:36;99303.09;;;9.09;64.68
62122;BME280;48108;47.532;19.084;2023-03-14T06:12:39;99312.59;;;9.68;62.83
62122;BME280;48108;47.532;19.084;2023-03-14T06:15:42;99318.38;;;10.75;57.87
62122;BME280;48108;47.532;19.084;2023-03-14T06:18:45;99306.75;;;11.41;55.69
62122;BME280;48108;47.532;19.084;2023-03-14T06:21:51;99315.44;;;11.49;52.76
62122;BME280;48108;47.532;19.084;2023-03-14T06:24:54;99309.69;;;11.39;52.49
62122;BME280;48108;47.532;19.084;2023-03-14T06:27:57;99307.00;;;11.12;51.93
62122;BME280;48108;47.532;19.084;2023-03-14T06:31:01;99302.63;;;10.85;53.43
62122;BME280;48108;47.532;19.084;2023-03-14T06:34:05;99303.28;;;10.80;52.26
62122;BME280;48108;47.532;19.084;2023-03-14T06:37:08;99313.59;;;10.50;53.19
62122;BME280;48108;47.532;19.084;2023-03-14T06:40:12;99297.22;;;10.45;53.92
62122;BME280;48108;47.532;19.084;2023-03-14T06:43:21;99312.12;;;10.54;53.07
62122;BME280;48108;47.532;19.084;2023-03-14T06:46:26;99311.72;;;10.51;53.68
62122;BME280;48108;47.532;19.084;2023-03-14T06:49:29;99313.13;;;10.40;53.68
62122;BME280;48108;47.532;19.084;2023-03-14T06:52:33;99307.34;;;10.43;54.47
62122;BME280;48108;47.532;19.084;2023-03-14T06:55:36;99313.34;;;10.45;55.34
62122;BME280;48108;47.532;19.084;2023-03-14T06:58:40;99320.19;;;10.54;53.63
62122;BME280;48108;47.532;19.084;2023-03-14T07:01:43;99302.81;;;10.57;53.64
62122;BME280;48108;47.532;19.084;2023-03-14T07:04:46;99304.22;;;10.46;54.53
62122;BME280;48108;47.532;19.084;2023-03-14T07:07:49;99298.47;;;10.62;53.89
62122;BME280;48108;47.532;19.084;2023-03-14T07:10:52;99301.78;;;10.64;54.89
62122;BME280;48108;47.532;19.084;2023-03-14T07:13:55;99304.28;;;10.73;55.78
62122;BME280;48108;47.532;19.084;2023-03-14T07:16:58;99297.28;;;10.92;53.85
62122;BME280;48108;47.532;19.084;2023-03-14T07:20:01;99290.44;;;10.96;53.36
62122;BME280;48108;47.532;19.084;2023-03-14T07:23:10;99298.09;;;10.92;53.49
62122;BME280;48108;47.532;19.084;2023-03-14T07:26:13;99301.63;;;10.93;54.12
62122;BME280;48108;47.532;19.084;2023-03-14T07:29:18;99292.31;;;10.88;53.96
62122;BME280;48108;47.532;19.084;2023-03-14T07:32:22;99286.88;;;10.82;55.42
62122;BME280;48108;47.532;19.084;2023-03-14T07:35:25;99291.47;;;11.15;54.17
62122;BME280;48108;47.532;19.084;2023-03-14T07:38:28;99281.50;;;11.35;53.35
62122;BME280;48108;47.532;19.084;2023-03-14T07:41:33;99281.84;;;11.52;53.74
62122;BME280;48108;47.532;19.084;2023-03-14T07:44:39;99290.97;;;11.71;53.35
62122;BME280;48108;47.532;19.084;2023-03-14T07:47:42;99277.25;;;11.86;52.34
62122;BME280;48108;47.532;19.084;2023-03-14T07:50:48;99271.78;;;11.99;52.01
62122;BME280;48108;47.532;19.084;2023-03-14T07:53:52;99266.34;;;12.12;52.34
62122;BME280;48108;47.532;19.084;2023-03-14T07:56:55;99264.41;;;12.26;51.86
62122;BME280;48108;47.532;19.084;2023-03-14T07:59:59;99261.03;;;12.31;51.92
62122;BME280;48108;47.532;19.084;2023-03-14T08:03:01;99250.00;;;12.39;51.52
62122;BME280;48108;47.532;19.084;2023-03-14T08:06:05;99248.50;;;12.43;50.89
62122;BME280;48108;47.532;19.084;2023-03-14T08:09:08;99240.53;;;12.55;51.76
62122;BME280;48108;47.532;19.084;2023-03-14T08:12:11;99240.13;;;12.83;51.74
62122;BME280;48108;47.532;19.084;2023-03-14T08:15:14;99235.72;;;13.13;50.13
62122;BME280;48108;47.532;19.084;2023-03-14T08:18:17;99227.84;;;13.30;49.87
62122;BME280;48108;47.532;19.084;2023-03-14T08:21:19;99226.66;;;13.45;50.04
62122;BME280;48108;47.532;19.084;2023-03-14T08:24:22;99216.84;;;13.50;49.93
62122;BME280;48108;47.532;19.084;2023-03-14T08:27:25;99219.84;;;13.60;49.78
62122;BME280;48108;47.532;19.084;2023-03-14T08:30:30;99225.72;;;13.57;48.99
62122;BME280;48108;47.532;19.084;2023-03-14T08:33:33;99223.47;;;13.54;50.50
62122;BME280;48108;47.532;19.084;2023-03-14T08:36:36;99222.09;;;13.82;49.75
62122;BME280;48108;47.532;19.084;2023-03-14T08:39:39;99214.84;;;13.94;48.51
62122;BME280;48108;47.532;19.084;2023-03-14T08:42:43;99211.91;;;14.26;47.62
62122;BME280;48108;47.532;19.084;2023-03-14T08:45:46;99205.75;;;14.49;47.38
62122;BME280;48108;47.532;19.084;2023-03-14T08:48:49;99201.19;;;14.61;47.30
62122;BME280;48108;47.532;19.084;2023-03-14T08:51:52;99209.78;;;14.58;46.77
62122;BME280;48108;47.532;19.084;2023-03-14T08:54:55;99189.81;;;14.41;47.60
62122;BME280;48108;47.532;19.084;2023-03-14T08:57:59;99190.72;;;14.65;47.71
62122;BME280;48108;47.532;19.084;2023-03-14T09:01:05;99181.66;;;14.94;46.37
62122;BME280;48108;47.532;19.084;2023-03-14T09:04:07;99176.63;;;14.86;46.02
62122;BME280;48108;47.532;19.084;2023-03-14T09:07:12;99179.31;;;14.98;46.41
62122;BME280;48108;47.532;19.084;2023-03-14T09:10:15;99161.50;;;15.26;45.33
62122;BME280;48108;47.532;19.084;2023-03-14T09:13:19;99169.50;;;15.32;44.88
62122;BME280;48108;47.532;19.084;2023-03-14T09:16:23;99159.47;;;15.45;45.62
62122;BME280;48108;47.532;19.084;2023-03-14T09:19:26;99169.22;;;15.57;44.19
62122;BME280;48108;47.532;19.084;2023-03-14T09:22:28;99162.16;;;15.56;45.72
62122;BME280;48108;47.532;19.084;2023-03-14T09:25:31;99152.03;;;15.92;43.61
62122;BME280;48108;47.532;19.084;2023-03-14T09:28:34;99150.31;;;16.03;43.34
62122;BME280;48108;47.532;19.084;2023-03-14T09:31:37;99137.94;;;16.24;43.79
62122;BME280;48108;47.532;19.084;2023-03-14T09:34:40;99129.03;;;16.28;43.37
62122;BME280;48108;47.532;19.084;2023-03-14T09:37:43;99127.47;;;16.16;43.49
62122;BME280;48108;47.532;19.084;2023-03-14T09:40:47;99126.13;;;16.01;43.26
62122;BME280;48108;47.532;19.084;2023-03-14T09:44:00;99128.62;;;16.37;43.46
62122;BME280;48108;47.532;19.084;2023-03-14T09:47:11;99126.25;;;16.40;43.46
62122;BME280;48108;47.532;19.084;2023-03-14T09:50:16;99111.56;;;16.75;42.85
62122;BME280;48108;47.532;19.084;2023-03-14T09:53:28;99098.88;;;16.97;42.52
62122;BME280;48108;47.532;19.084;2023-03-14T09:56:33;99095.72;;;17.28;41.20
62122;BME280;48108;47.532;19.084;2023-03-14T09:59:37;99086.53;;;17.56;41.09
62122;BME280;48108;47.532;19.084;2023-03-14T10:02:43;99093.94;;;17.60;40.80
62122;BME280;48108;47.532;19.084;2023-03-14T10:05:49;99073.19;;;17.54;41.02
62122;BME280;48108;47.532;19.084;2023-03-14T10:08:52;99063.97;;;17.82;40.78
62122;BME280;48108;47.532;19.084;2023-03-14T10:11:57;99057.09;;;18.02;40.71
62122;BME280;48108;47.532;19.084;2023-03-14T10:15:12;99044.00;;;18.04;40.59
62122;BME280;48108;47.532;19.084;2023-03-14T10:18:17;99041.72;;;18.23;40.02
62122;BME280;48108;47.532;19.084;2023-03-14T10:21:29;99048.63;;;18.35;40.53
62122;BME280;48108;47.532;19.084;2023-03-14T10:24:34;99024.16;;;18.41;41.25
62122;BME280;48108;47.532;19.084;2023-03-14T10:27:36;99013.91;;;19.16;39.63
62122;BME280;48108;47.532;19.084;2023-03-14T10:30:44;98998.91;;;19.18;37.79
62122;BME280;48108;47.532;19.084;2023-03-14T10:34:03;99007.69;;;19.25;38.36
62122;BME280;48108;47.532;19.084;2023-03-14T10:37:17;98992.78;;;19.94;37.81
62122;BME280;48108;47.532;19.084;2023-03-14T10:40:33;98992.25;;;19.92;36.32
62122;BME280;48108;47.532;19.084;2023-03-14T10:43:38;98984.84;;;19.83;35.76
62122;BME280;48108;47.532;19.084;2023-03-14T10:46:42;98987.87;;;19.86;35.32
62122;BME280;48108;47.532;19.084;2023-03-14T10:50:23;98990.31;;;19.67;35.99
62122;BME280;48108;47.532;19.084;2023-03-14T10:53:26;98987.31;;;19.94;35.52
62122;BME280;48108;47.532;19.084;2023-03-14T10:56:36;98980.50;;;19.92;36.15
62122;BME280;48108;47.532;19.084;2023-03-14T10:59:41;98988.16;;;19.85;36.46
62122;BME280;48108;47.532;19.084;2023-03-14T11:03:03;98968.47;;;19.88;35.67
62122;BME280;48108;47.532;19.084;2023-03-14T11:16:27;98954.47;;;21.16;33.81
62122;BME280;48108;47.532;19.084;2023-03-14T11:19:43;98939.13;;;21.20;33.51
62122;BME280;48108;47.532;19.084;2023-03-14T11:23:01;98929.50;;;21.27;33.44
62122;BME280;48108;47.532;19.084;2023-03-14T11:26:26;98922.88;;;21.34;34.94
62122;BME280;48108;47.532;19.084;2023-03-14T11:29:39;98922.28;;;21.81;33.48
62122;BME280;48108;47.532;19.084;2023-03-14T11:39:14;98898.19;;;21.78;33.10
62122;BME280;48108;47.532;19.084;2023-03-14T11:42:18;98888.91;;;22.32;32.22
62122;BME280;48108;47.532;19.084;2023-03-14T11:45:35;98881.16;;;22.82;31.51
62122;BME280;48108;47.532;19.084;2023-03-14T11:48:59;98882.03;;;22.35;31.94
62122;BME280;48108;47.532;19.084;2023-03-14T11:52:09;98868.31;;;22.35;31.53
62122;BME280;48108;47.532;19.084;2023-03-14T11:55:20;98858.13;;;22.59;30.88
62122;BME280;48108;47.532;19.084;2023-03-14T11:58:33;98863.44;;;23.31;30.30
62122;BME280;48108;47.532;19.084;2023-03-14T12:02:03;98859.16;;;23.58;30.36
62122;BME280;48108;47.532;19.084;2023-03-14T12:11:58;98857.75;;;22.23;31.37
62122;BME280;48108;47.532;19.084;2023-03-14T12:15:05;98845.53;;;22.77;31.67
62122;BME280;48108;47.532;19.084;2023-03-14T12:21:49;98839.59;;;23.92;29.00
62122;BME280;48108;47.532;19.084;2023-03-14T12:24:54;98832.91;;;23.00;29.59
62122;BME280;48108;47.532;19.084;2023-03-14T12:28:18;98831.75;;;21.91;30.81
62122;BME280;48108;47.532;19.084;2023-03-14T12:34:33;98817.13;;;21.09;31.84
62122;BME280;48108;47.532;19.084;2023-03-14T12:37:42;98820.94;;;21.13;32.63
62122;BME280;48108;47.532;19.084;2023-03-14T12:50:40;98796.37;;;23.65;29.36
62122;BME280;48108;47.532;19.084;2023-03-14T12:57:35;98781.91;;;21.36;32.23
62122;BME280;48108;47.532;19.084;2023-03-14T13:00:42;98784.09;;;20.60;33.56
62122;BME280;48108;47.532;19.084;2023-03-14T13:06:57;98781.69;;;19.68;35.52
62122;BME280;48108;47.532;19.084;2023-03-14T13:16:20;98768.38;;;19.26;39.09
62122;BME280;48108;47.532;19.084;2023-03-14T13:19:26;98766.75;;;19.25;37.26
62122;BME280;48108;47.532;19.084;2023-03-14T13:22:32;98771.94;;;19.16;37.73
62122;BME280;48108;47.532;19.084;2023-03-14T13:25:36;98784.75;;;19.16;37.38
62122;BME280;48108;47.532;19.084;2023-03-14T13:28:39;98786.12;;;19.03;37.12
62122;BME280;48108;47.532;19.084;2023-03-14T13:31:46;98790.47;;;19.04;37.46
62122;BME280;48108;47.532;19.084;2023-03-14T13:34:49;98794.00;;;18.94;37.11
62122;BME280;48108;47.532;19.084;2023-03-14T13:37:58;98805.44;;;18.76;37.38
62122;BME280;48108;47.532;19.084;2023-03-14T13:41:13;98806.75;;;18.63;38.67
62122;BME280;48108;47.532;19.084;2023-03-14T13:44:27;98806.16;;;18.41;39.49
62122;BME280;48108;47.532;19.084;2023-03-14T13:47:32;98810.59;;;17.94;43.04
62122;BME280;48108;47.532;19.084;2023-03-14T13:50:37;98808.06;;;17.82;44.12
62122;BME280;48108;47.532;19.084;2023-03-14T13:56:48;98809.84;;;18.09;43.17
62122;BME280;48108;47.532;19.084;2023-03-14T14:00:06;98806.59;;;18.12;41.23
62122;BME280;48108;47.532;19.084;2023-03-14T14:03:13;98798.97;;;18.19;41.13
62122;BME280;48108;47.532;19.084;2023-03-14T14:06:32;98808.31;;;18.39;40.67
62122;BME280;48108;47.532;19.084;2023-03-14T14:09:38;98807.81;;;18.52;39.57
62122;BME280;48108;47.532;19.084;2023-03-14T14:13:03;98804.00;;;18.63;39.75
62122;BME280;48108;47.532;19.084;2023-03-14T14:16:06;98799.19;;;18.86;39.42
62122;BME280;48108;47.532;19.084;2023-03-14T14:19:09;98796.47;;;18.86;40.60
62122;BME280;48108;47.532;19.084;2023-03-14T14:22:13;98787.75;;;19.04;38.36
62122;BME280;48108;47.532;19.084;2023-03-14T14:25:17;98785.28;;;19.18;37.53
62122;BME280;48108;47.532;19.084;2023-03-14T14:28:29;98783.13;;;19.05;38.07
62122;BME280;48108;47.532;19.084;2023-03-14T14:31:32;98786.66;;;19.05;37.79
62122;BME280;48108;47.532;19.084;2023-03-14T14:34:59;98792.09;;;18.79;37.82
62122;BME280;48108;47.532;19.084;2023-03-14T14:38:11;98788.31;;;18.96;37.13
62122;BME280;48108;47.532;19.084;2023-03-14T14:41:15;98790.75;;;18.97;37.33
62122;BME280;48108;47.532;19.084;2023-03-14T14:44:29;98780.09;;;19.01;37.15
62122;BME280;48108;47.532;19.084;2023-03-14T14:47:33;98788.56;;;19.20;36.88
62122;BME280;48108;47.532;19.084;2023-03-14T14:50:50;98786.09;;;19.18;37.34
62122;BME280;48108;47.532;19.084;2023-03-14T14:54:10;98785.03;;;19.14;37.26
62122;BME280;48108;47.532;19.084;2023-03-14T14:57:19;98783.94;;;19.10;38.14
62122;BME280;48108;47.532;19.084;2023-03-14T15:00:23;98788.00;;;19.13;37.73
62122;BME280;48108;47.532;19.084;2023-03-14T15:03:30;98783.94;;;19.00;39.30
62122;BME280;48108;47.532;19.084;2023-03-14T15:06:33;98779.56;;;18.94;38.65
62122;BME280;48108;47.532;19.084;2023-03-14T15:09:36;98787.13;;;18.71;39.08
62122;BME280;48108;47.532;19.084;2023-03-14T15:12:39;98792.00;;;18.44;40.27
62122;BME280;48108;47.532;19.084;2023-03-14T15:15:43;98795.22;;;18.25;41.34
62122;BME280;48108;47.532;19.084;2023-03-14T15:18:52;98794.06;;;18.16;41.09
62122;BME280;48108;47.532;19.084;2023-03-14T15:21:56;98804.09;;;18.05;41.22
62122;BME280;48108;47.532;19.084;2023-03-14T15:24:58;98818.78;;;17.99;41.32
62122;BME280;48108;47.532;19.084;2023-03-14T15:28:02;98822.81;;;17.92;41.79
62122;BME280;48108;47.532;19.084;2023-03-14T15:31:04;98825.50;;;17.86;41.26
62122;BME280;48108;47.532;19.084;2023-03-14T15:34:10;98830.03;;;17.71;41.89
62122;BME280;48108;47.532;19.084;2023-03-14T15:37:15;98833.00;;;17.69;41.32
62122;BME280;48108;47.532;19.084;2023-03-14T15:40:18;98836.47;;;17.59;41.03
62122;BME280;48108;47.532;19.084;2023-03-14T15:43:22;98836.22;;;17.61;40.52
62122;BME280;48108;47.532;19.084;2023-03-14T15:46:25;98830.13;;;17.43;41.43
62122;BME280;48108;47.532;19.084;2023-03-14T15:49:29;98830.13;;;17.43;41.06
62122;BME280;48108;47.532;19.084;2023-03-14T15:52:32;98857.50;;;17.37;41.59
62122;BME280;48108;47.532;19.084;2023-03-14T15:55:34;98868.62;;;17.30;41.60
62122;BME280;48108;47.532;19.084;2023-03-14T15:58:38;98885.69;;;17.26;43.16
62122;BME280;48108;47.532;19.084;2023-03-14T16:01:42;98899.06;;;17.00;50.51
62122;BME280;48108;47.532;19.084;2023-03-14T16:04:45;98901.09;;;16.66;56.60
62122;BME280;48108;47.532;19.084;2023-03-14T16:07:48;98907.59;;;16.21;60.88
62122;BME280;48108;47.532;19.084;2023-03-14T16:10:51;98919.19;;;15.94;63.80
62122;BME280;48108;47.532;19.084;2023-03-14T16:13:54;98914.53;;;15.44;69.47
62122;BME280;48108;47.532;19.084;2023-03-14T16:16:57;98911.50;;;14.95;77.31
62122;BME280;48108;47.532;19.084;2023-03-14T16:20:01;98916.81;;;14.38;83.36
62122;BME280;48108;47.532;19.084;2023-03-14T16:23:06;98924.72;;;13.92;88.45
62122;BME280;48108;47.532;19.084;2023-03-14T16:26:12;98918.97;;;13.65;92.63
62122;BME280;48108;47.532;19.084;2023-03-14T16:29:17;98920.94;;;13.46;94.45
62122;BME280;48108;47.532;19.084;2023-03-14T16:32:19;98914.13;;;13.44;95.77
62122;BME280;48108;47.532;19.084;2023-03-14T16:35:23;98906.94;;;13.37;95.82
62122;BME280;48108;47.532;19.084;2023-03-14T16:38:26;98907.62;;;13.33;95.89
62122;BME280;48108;47.532;19.084;2023-03-14T16:41:35;98913.75;;;13.28;97.61
62122;BME280;48108;47.532;19.084;2023-03-14T16:44:37;98918.84;;;13.18;99.36
62122;BME280;48108;47.532;19.084;2023-03-14T16:47:40;98928.47;;;13.14;100.00
62122;BME280;48108;47.532;19.084;2023-03-14T16:50:48;98937.84;;;13.11;100.00
62122;BME280;48108;47.532;19.084;2023-03-14T16:53:52;98946.53;;;13.02;100.00
62122;BME280;48108;47.532;19.084;2023-03-14T16:56:55;98947.34;;;13.02;100.00
62122;BME280;48108;47.532;19.084;2023-03-14T16:59:58;98960.56;;;12.92;100.00
62122;BME280;48108;47.532;19.084;2023-03-14T17:03:01;98970.03;;;12.83;100.00
